createdAt,value
2022-11-30T00:02:47.262Z,102064.47
2022-11-30T00:08:10.208Z,102073.27
2022-11-30T00:13:34.326Z,102067.11
2022-11-30T00:18:57.538Z,102067.11
2022-11-30T00:24:21.542Z,102079.48
2022-11-30T00:29:44.607Z,102070.68
2022-11-30T00:35:07.350Z,102073.31
2022-11-30T00:40:30.557Z,102077.74
2022-11-30T00:45:54.916Z,102084.81
2022-11-30T00:51:19.542Z,102090.09
2022-11-30T00:56:43.897Z,102081.28
2022-11-30T01:02:06.901Z,102083.90
2022-11-30T01:07:29.297Z,102075.11
2022-11-30T01:12:52.710Z,102080.38
2022-11-30T01:18:17.360Z,102080.41
2022-11-30T01:23:40.221Z,102084.80
2022-11-30T01:29:04.355Z,102083.05
2022-11-30T01:34:28.754Z,102090.12
2022-11-30T01:39:51.013Z,102094.51
2022-11-30T01:45:18.711Z,102090.09
2022-11-30T01:50:47.560Z,102098.03
2022-11-30T01:56:10.430Z,102103.34
2022-11-30T02:01:33.534Z,102103.34
2022-11-30T02:06:56.827Z,102101.59
2022-11-30T02:12:25.448Z,102108.66
2022-11-30T02:17:52.490Z,102109.58
2022-11-30T02:23:28.668Z,102105.19
2022-11-30T02:29:37.923Z,102112.27
2022-11-30T02:35:02.025Z,102107.90
2022-11-30T02:40:31.083Z,102112.34
2022-11-30T02:46:29.501Z,102121.15
2022-11-30T02:51:54.922Z,102121.17
2022-11-30T02:57:17.325Z,102125.56
2022-11-30T03:02:40.164Z,102115.91
2022-11-30T03:08:03.387Z,102112.38
2022-11-30T03:13:26.865Z,102118.54
2022-11-30T03:18:50.746Z,102114.15
2022-11-30T03:24:14.882Z,102123.83
2022-11-30T03:29:37.987Z,102125.67
2022-11-30T03:35:00.704Z,102123.08
2022-11-30T03:40:25.020Z,102131.02
2022-11-30T03:45:47.214Z,102132.81
2022-11-30T03:51:12.199Z,102133.70
2022-11-30T03:56:36.718Z,102136.34
2022-11-30T04:02:00.446Z,102138.08
2022-11-30T04:07:22.675Z,102146.92
2022-11-30T04:12:44.955Z,102148.77
2022-11-30T04:18:07.608Z,102157.69
2022-11-30T04:23:31.084Z,102162.13
2022-11-30T04:28:54.434Z,102156.87
2022-11-30T04:34:18.333Z,102161.30
2022-11-30T04:39:41.208Z,102160.46
2022-11-30T04:45:05.849Z,102164.89
2022-11-30T04:50:29.241Z,102171.06
2022-11-30T04:55:51.613Z,102173.70
2022-11-30T05:01:13.870Z,102175.53
2022-11-30T05:06:37.017Z,102184.33
2022-11-30T05:12:00.838Z,102178.19
2022-11-30T05:17:23.011Z,102188.76
2022-11-30T05:22:45.730Z,102186.12
2022-11-30T05:28:08.591Z,102189.66
2022-11-30T05:33:31.351Z,102194.12
2022-11-30T05:38:55.788Z,102194.97
2022-11-30T05:44:19.969Z,102199.40
2022-11-30T05:49:44.597Z,102204.67
2022-11-30T05:55:07.686Z,102203.80
2022-11-30T06:00:31.970Z,102216.13
2022-11-30T06:05:59.200Z,102216.14
2022-11-30T06:11:22.585Z,102220.59
2022-11-30T06:16:47.726Z,102221.50
2022-11-30T06:22:09.997Z,102224.14
2022-11-30T06:27:32.666Z,102229.40
2022-11-30T06:32:57.519Z,102234.67
2022-11-30T06:38:21.431Z,102243.48
2022-11-30T06:43:45.694Z,102240.84
2022-11-30T06:49:08.566Z,102247.89
2022-11-30T06:54:30.760Z,102246.13
2022-11-30T06:59:54.646Z,102249.63
2022-11-30T07:05:18.803Z,102247.86
2022-11-30T07:10:43.713Z,102256.67
2022-11-30T07:16:06.229Z,102263.69
2022-11-30T07:21:28.740Z,102266.32
2022-11-30T07:26:52.003Z,102268.04
2022-11-30T07:32:14.342Z,102276.86
2022-11-30T07:37:36.762Z,102287.42
2022-11-30T07:43:01.137Z,102291.83
2022-11-30T07:48:23.960Z,102296.23
2022-11-30T07:53:47.049Z,102304.13
2022-11-30T07:59:11.665Z,102303.25
2022-11-30T08:04:34.132Z,102297.09
2022-11-30T08:09:57.150Z,102297.95
2022-11-30T08:15:21.263Z,102295.32
2022-11-30T08:20:49.631Z,102305.88
2022-11-30T08:26:16.014Z,102312.94
2022-11-30T08:31:51.935Z,102308.50
2022-11-30T08:37:15.020Z,102313.73
2022-11-30T08:42:37.286Z,102313.70
2022-11-30T08:48:00.839Z,102326.03
2022-11-30T08:53:23.079Z,102326.91
2022-11-30T08:58:47.532Z,102336.58
2022-11-30T09:04:11.931Z,102334.81
2022-11-30T09:09:34.099Z,102346.27
2022-11-30T09:14:58.506Z,102355.98
2022-11-30T09:20:21.038Z,102356.84
2022-11-30T09:25:43.194Z,102351.53
2022-11-30T09:31:09.639Z,102355.98
2022-11-30T09:36:34.641Z,102355.91
2022-11-30T09:42:23.053Z,102362.09
2022-11-30T09:48:14.108Z,102359.47
2022-11-30T09:54:00.295Z,102362.97
2022-11-30T09:59:38.214Z,102354.20
2022-11-30T10:05:00.650Z,102351.53
2022-11-30T10:10:36.304Z,102340.91
2022-11-30T10:16:53.129Z,102344.45
2022-11-30T10:22:35.257Z,102360.31
2022-11-30T10:28:38.673Z,102344.40
2022-11-30T10:33:40.154Z,102344.50
2022-11-30T10:39:14.263Z,102333.88
2022-11-30T10:44:40.834Z,102329.52
2022-11-30T10:50:07.592Z,102333.94
2022-11-30T10:55:36.660Z,102339.21
2022-11-30T11:01:11.248Z,102331.33
2022-11-30T11:06:36.844Z,102323.39
2022-11-30T11:12:01.323Z,102333.09
2022-11-30T11:17:40.434Z,102335.77
2022-11-30T11:23:03.520Z,102332.22
2022-11-30T11:28:28.826Z,102336.64
2022-11-30T11:34:00.045Z,102341.04
2022-11-30T11:39:32.110Z,102334.00
2022-11-30T11:45:01.724Z,102326.91
2022-11-30T11:51:06.106Z,102335.75
2022-11-30T11:56:20.863Z,102338.34
2022-11-30T12:02:21.456Z,102340.98
2022-11-30T12:07:57.608Z,102337.48
2022-11-30T12:13:29.085Z,102349.84
2022-11-30T12:19:28.912Z,102348.05
2022-11-30T12:25:25.001Z,102346.33
2022-11-30T12:31:01.279Z,102352.45
2022-11-30T12:37:01.607Z,102349.83
2022-11-30T12:42:34.126Z,102354.23
2022-11-30T12:48:35.395Z,102348.95
2022-11-30T12:54:08.636Z,102346.31
2022-11-30T12:59:45.048Z,102348.05
2022-11-30T13:05:14.580Z,102356.84
2022-11-30T13:10:56.568Z,102345.41
2022-11-30T13:16:21.635Z,102348.92
2022-11-30T13:22:00.705Z,102350.67
2022-11-30T13:27:46.325Z,102351.55
2022-11-30T13:33:28.166Z,102354.21
2022-11-30T13:38:51.153Z,102349.80
2022-11-30T13:44:15.144Z,102359.48
2022-11-30T13:49:43.309Z,102361.27
2022-11-30T13:55:07.248Z,102363.96
2022-11-30T14:01:04.874Z,102358.66
2022-11-30T14:06:59.235Z,102367.42
2022-11-30T14:12:42.645Z,102366.55
2022-11-30T14:18:07.011Z,102363.91
2022-11-30T14:23:55.836Z,102371.88
2022-11-30T14:29:25.687Z,102370.13
2022-11-30T14:34:52.788Z,102366.60
2022-11-30T14:40:22.146Z,102373.66
2022-11-30T14:45:46.657Z,102383.34
2022-11-30T14:51:12.633Z,102365.74
2022-11-30T14:56:45.179Z,102362.23
2022-11-30T15:02:15.341Z,102373.69
2022-11-30T15:07:39.158Z,102378.98
2022-11-30T15:13:02.778Z,102386.02
2022-11-30T15:18:36.972Z,102386.89
2022-11-30T15:23:59.579Z,102383.36
2022-11-30T15:29:39.049Z,102392.16
2022-11-30T15:35:07.481Z,102388.63
2022-11-30T15:40:37.756Z,102394.78
2022-11-30T15:46:06.043Z,102405.35
2022-11-30T15:51:31.680Z,102399.19
2022-11-30T15:56:55.579Z,102408.88
2022-11-30T16:02:32.526Z,102410.64
2022-11-30T16:08:06.626Z,102411.53
2022-11-30T16:13:37.859Z,102410.63
2022-11-30T16:19:01.713Z,102415.91
2022-11-30T16:24:27.470Z,102408.86
2022-11-30T16:29:52.592Z,102407.13
2022-11-30T16:35:32.639Z,102419.45
2022-11-30T16:40:55.901Z,102416.80
2022-11-30T16:46:28.331Z,102407.98
2022-11-30T16:51:52.925Z,102413.27
2022-11-30T16:57:16.193Z,102415.91
2022-11-30T17:02:40.471Z,102410.64
2022-11-30T17:08:03.624Z,102418.57
2022-11-30T17:13:27.495Z,102423.88
2022-11-30T17:18:49.722Z,102419.44
2022-11-30T17:24:12.258Z,102417.69
2022-11-30T17:29:34.455Z,102426.49
2022-11-30T17:34:56.720Z,102424.73
2022-11-30T17:40:19.400Z,102433.55
2022-11-30T17:45:43.370Z,102429.16
2022-11-30T17:51:07.714Z,102446.75
2022-11-30T17:56:36.618Z,102452.94
2022-11-30T18:01:58.860Z,102455.58
2022-11-30T18:07:21.604Z,102451.16
2022-11-30T18:12:43.875Z,102452.05
2022-11-30T18:18:06.081Z,102451.17
2022-11-30T18:23:28.941Z,102455.59
2022-11-30T18:28:52.515Z,102462.66
2022-11-30T18:34:18.589Z,102466.17
2022-11-30T18:39:40.818Z,102468.78
2022-11-30T18:45:03.060Z,102469.66
2022-11-30T18:50:26.251Z,102471.43
2022-11-30T18:55:49.035Z,102468.80
2022-11-30T19:01:14.923Z,102467.92
2022-11-30T19:06:41.227Z,102468.80
2022-11-30T19:12:06.258Z,102475.83
2022-11-30T19:17:31.544Z,102478.47
2022-11-30T19:22:56.473Z,102480.24
2022-11-30T19:28:21.801Z,102481.13
2022-11-30T19:33:52.665Z,102483.77
2022-11-30T19:39:19.956Z,102482.88
2022-11-30T19:44:46.016Z,102487.22
2022-11-30T19:50:12.493Z,102484.58
2022-11-30T19:55:37.656Z,102495.17
2022-11-30T20:01:03.448Z,102493.41
2022-11-30T20:06:30.871Z,102498.70
2022-11-30T20:11:55.504Z,102484.58
2022-11-30T20:17:18.154Z,102485.44
2022-11-30T20:22:40.703Z,102492.50
2022-11-30T20:28:09.626Z,102493.37
2022-11-30T20:33:28.887Z,102493.37
2022-11-30T20:38:51.931Z,102489.84
2022-11-30T20:44:17.380Z,102497.75
2022-11-30T20:49:40.048Z,102495.13
2022-11-30T20:55:02.914Z,102497.78
2022-11-30T21:00:26.788Z,102501.27
2022-11-30T21:05:51.489Z,102503.02
2022-11-30T21:11:18.390Z,102503.02
2022-11-30T21:16:41.867Z,102507.42
2022-11-30T21:22:04.225Z,102503.02
2022-11-30T21:27:26.536Z,102503.03
2022-11-30T21:32:48.887Z,102506.55
2022-11-30T21:38:11.145Z,102516.23
2022-11-30T21:43:34.049Z,102514.47
2022-11-30T21:48:58.931Z,102507.44
2022-11-30T21:54:24.315Z,102505.67
2022-11-30T21:59:47.762Z,102506.53
2022-11-30T22:05:11.845Z,102506.52
2022-11-30T22:10:34.208Z,102512.69
2022-11-30T22:15:56.487Z,102504.75
2022-11-30T22:21:25.495Z,102512.70
2022-11-30T22:26:51.086Z,102505.64
2022-11-30T22:32:13.509Z,102502.11
2022-11-30T22:37:36.229Z,102494.19
2022-11-30T22:42:59.825Z,102506.52
2022-11-30T22:48:22.165Z,102495.95
2022-11-30T22:53:48.615Z,102502.13
2022-11-30T22:59:13.124Z,102498.61
2022-11-30T23:04:36.958Z,102490.69
2022-11-30T23:09:59.821Z,102485.41
2022-11-30T23:15:22.691Z,102485.41
2022-11-30T23:20:46.803Z,102475.71
2022-11-30T23:26:20.074Z,102473.08
2022-11-30T23:31:49.178Z,102473.06
2022-11-30T23:37:11.555Z,102473.93
2022-11-30T23:42:33.917Z,102478.33
2022-11-30T23:47:56.166Z,102477.47
2022-11-30T23:53:18.512Z,102470.41
2022-11-30T23:58:42.953Z,102476.59
